Time;durP1;ratioP1;P1;durP2;ratioP2;P2;SDS_P1;SDS_P2;PMS_P1;PMS_P2;Temp;Humidity;BMP_temperature;BMP_pressure;BME280_temperature;BME280_humidity;BME280_pressure;Samples;Min_cycle;Max_cycle;Signal;HPM_P1;HPM_P2
2022/05/25 00:01:50;;;;;;;5.00;4.50;;;;;;;;;;5116857;28;20456;-72
2022/05/25 00:04:17;;;;;;;5.80;5.20;;;;;;;;;;5116701;28;20450;-72
2022/05/25 00:06:45;;;;;;;7.63;5.07;;;;;;;;;;5116425;28;20454;-72
2022/05/25 00:09:12;;;;;;;7.30;4.40;;;;;;;;;;5116604;28;20457;-72
2022/05/25 00:11:39;;;;;;;8.00;4.80;;;;;;;;;;5116636;28;20454;-72
2022/05/25 00:14:08;;;;;;;5.40;4.90;;;;;;;;;;5116205;28;20453;-72
2022/05/25 00:16:35;;;;;;;6.40;4.60;;;;;;;;;;5116180;28;20817;-72
2022/05/25 00:21:47;;;;;;;6.43;4.67;;;;;;;;;;5116446;28;20463;-72
2022/05/25 00:24:14;;;;;;;5.63;5.13;;;;;;;;;;5116109;28;20453;-72
2022/05/25 00:26:41;;;;;;;5.53;4.50;;;;;;;;;;5116351;28;20477;-72
2022/05/25 00:29:10;;;;;;;6.00;5.50;;;;;;;;;;5116148;28;20430;-72
2022/05/25 00:31:37;;;;;;;5.67;4.50;;;;;;;;;;5116753;28;20557;-72
2022/05/25 00:34:04;;;;;;;8.17;5.33;;;;;;;;;;5116261;28;20456;-72
2022/05/25 00:36:31;;;;;;;6.67;4.93;;;;;;;;;;5116192;28;20821;-72
2022/05/25 00:38:58;;;;;;;7.63;5.00;;;;;;;;;;5116123;28;20456;-72
2022/05/25 00:41:28;;;;;;;6.00;4.07;;;;;;;;;;5115704;27;20476;-72
2022/05/25 00:43:55;;;;;;;6.57;4.70;;;;;;;;;;5115936;28;20939;-72
2022/05/25 00:46:24;;;;;;;4.50;3.70;;;;;;;;;;5115938;28;20493;-72
2022/05/25 00:48:53;;;;;;;4.60;3.80;;;;;;;;;;5115953;28;20458;-72
2022/05/25 00:51:22;;;;;;;4.50;4.10;;;;;;;;;;5115513;28;20484;-72
2022/05/25 00:53:52;;;;;;;4.90;3.53;;;;;;;;;;5115813;28;20481;-72
2022/05/25 00:56:22;;;;;;;7.93;3.70;;;;;;;;;;5115822;28;20422;-72
2022/05/25 00:58:51;;;;;;;3.97;3.67;;;;;;;;;;5115728;28;20453;-72
2022/05/25 01:01:18;;;;;;;5.10;3.70;;;;;;;;;;5115600;28;20473;-72
2022/05/25 01:03:46;;;;;;;5.30;4.20;;;;;;;;;;5115624;28;20457;-72
2022/05/25 01:06:18;;;;;;;4.40;3.30;;;;;;;;;;5115191;28;20481;-72
2022/05/25 01:08:51;;;;;;;4.07;3.20;;;;;;;;;;5115214;28;20448;-72
2022/05/25 01:11:24;;;;;;;3.40;3.10;;;;;;;;;;5115514;28;20985;-72
2022/05/25 01:13:53;;;;;;;3.00;2.67;;;;;;;;;;5115484;28;20930;-72
2022/05/25 01:16:24;;;;;;;4.43;2.90;;;;;;;;;;5115363;28;20469;-72
2022/05/25 01:18:56;;;;;;;5.63;3.20;;;;;;;;;;5115399;28;20810;-72
2022/05/25 01:21:26;;;;;;;5.47;3.53;;;;;;;;;;5114861;28;20465;-72
2022/05/25 01:24:04;;;;;;;3.50;2.80;;;;;;;;;;5115235;27;20804;-72
2022/05/25 01:26:49;;;;;;;4.20;3.73;;;;;;;;;;5114268;28;20469;-71
2022/05/25 01:29:24;;;;;;;5.20;4.00;;;;;;;;;;5115012;28;20820;-71
2022/05/25 01:31:56;;;;;;;4.57;4.17;;;;;;;;;;5115853;28;20819;-72
2022/05/25 01:34:29;;;;;;;4.30;3.90;;;;;;;;;;5115037;28;20899;-72
2022/05/25 01:36:58;;;;;;;6.13;4.90;;;;;;;;;;5114989;28;20887;-72
2022/05/25 01:39:27;;;;;;;8.43;7.50;;;;;;;;;;5114855;28;20450;-72
2022/05/25 01:41:58;;;;;;;15.90;11.40;;;;;;;;;;5114530;28;20449;-72
2022/05/25 01:44:30;;;;;;;14.37;12.87;;;;;;;;;;5114821;28;20438;-72
2022/05/25 01:47:03;;;;;;;8.47;7.57;;;;;;;;;;5114708;28;20470;-72
2022/05/25 01:49:34;;;;;;;6.13;5.53;;;;;;;;;;5114703;28;20441;-72
2022/05/25 01:52:02;;;;;;;5.50;4.60;;;;;;;;;;5114444;28;20608;-72
2022/05/25 01:54:31;;;;;;;5.90;5.30;;;;;;;;;;5114304;28;20457;-72
2022/05/25 01:57:01;;;;;;;6.20;5.60;;;;;;;;;;5114680;28;20449;-72
2022/05/25 01:59:28;;;;;;;5.80;5.20;;;;;;;;;;5114506;28;20449;-72
2022/05/25 02:04:39;;;;;;;5.90;5.30;;;;;;;;;;5114051;28;20410;-72
2022/05/25 02:07:09;;;;;;;7.63;6.53;;;;;;;;;;5114313;28;20966;-72
2022/05/25 02:09:47;;;;;;;9.83;7.60;;;;;;;;;;5114368;28;20465;-72
2022/05/25 02:12:21;;;;;;;9.60;8.00;;;;;;;;;;5114437;28;20891;-72
2022/05/25 02:14:52;;;;;;;9.93;8.63;;;;;;;;;;5114425;28;20436;-72
2022/05/25 02:17:25;;;;;;;13.87;12.57;;;;;;;;;;5114343;28;20429;-72
2022/05/25 02:19:57;;;;;;;13.53;10.57;;;;;;;;;;5113927;28;20474;-72
2022/05/25 02:22:27;;;;;;;11.13;7.97;;;;;;;;;;5114231;28;20441;-72
2022/05/25 02:24:56;;;;;;;12.57;11.47;;;;;;;;;;5114171;28;20497;-72
2022/05/25 02:27:25;;;;;;;9.47;8.57;;;;;;;;;;5114105;28;20478;-72
2022/05/25 02:29:54;;;;;;;7.80;6.67;;;;;;;;;;5113908;28;20488;-72
2022/05/25 02:32:24;;;;;;;6.47;5.87;;;;;;;;;;5114126;28;20446;-71
2022/05/25 02:34:52;;;;;;;19.00;7.10;;;;;;;;;;5114089;28;20454;-72
2022/05/25 02:37:22;;;;;;;5.80;5.23;;;;;;;;;;5113865;28;20460;-72
2022/05/25 02:39:51;;;;;;;5.67;4.63;;;;;;;;;;5114350;28;20932;-72
2022/05/25 02:42:19;;;;;;;3.97;3.30;;;;;;;;;;5113566;28;20468;-72
2022/05/25 02:44:46;;;;;;;3.43;2.63;;;;;;;;;;5113889;28;20457;-72
2022/05/25 02:47:13;;;;;;;5.67;3.63;;;;;;;;;;5113816;28;20481;-72
2022/05/25 02:49:41;;;;;;;5.60;2.90;;;;;;;;;;5113809;28;20473;-72
2022/05/25 02:52:09;;;;;;;4.60;3.20;;;;;;;;;;5113607;28;20446;-72
2022/05/25 02:54:38;;;;;;;3.00;2.70;;;;;;;;;;5113920;28;20965;-72
2022/05/25 02:57:05;;;;;;;7.90;3.80;;;;;;;;;;5113461;28;20458;-72
2022/05/25 02:59:33;;;;;;;4.57;3.93;;;;;;;;;;5113475;28;20473;-72
2022/05/25 03:02:01;;;;;;;6.40;3.97;;;;;;;;;;5113779;28;20454;-72
2022/05/25 03:04:28;;;;;;;4.03;3.63;;;;;;;;;;5113429;28;20489;-72
2022/05/25 03:06:55;;;;;;;5.30;4.00;;;;;;;;;;5113674;28;20482;-72
2022/05/25 03:09:23;;;;;;;4.87;4.13;;;;;;;;;;5113320;28;20453;-72
2022/05/25 03:11:53;;;;;;;4.83;4.33;;;;;;;;;;5113619;28;20966;-72
2022/05/25 03:14:20;;;;;;;7.57;4.70;;;;;;;;;;5113760;28;20473;-72
2022/05/25 03:16:47;;;;;;;7.83;5.43;;;;;;;;;;5113364;28;20441;-72
2022/05/25 03:19:14;;;;;;;5.80;5.20;;;;;;;;;;5113512;28;20930;-72
2022/05/25 03:21:41;;;;;;;6.97;6.30;;;;;;;;;;5113304;28;20453;-72
2022/05/25 03:24:09;;;;;;;6.93;6.13;;;;;;;;;;5113603;28;20449;-72
2022/05/25 03:26:36;;;;;;;9.23;5.90;;;;;;;;;;5113528;28;20946;-72
2022/05/25 03:29:05;;;;;;;10.13;6.10;;;;;;;;;;5113534;28;20481;-72
2022/05/25 03:31:32;;;;;;;10.13;6.80;;;;;;;;;;5113073;28;20565;-72
2022/05/25 03:33:59;;;;;;;8.57;6.53;;;;;;;;;;5113172;28;20454;-72
2022/05/25 03:36:26;;;;;;;10.67;6.90;;;;;;;;;;5113227;28;20442;-72
2022/05/25 03:38:53;;;;;;;6.90;6.07;;;;;;;;;;5113427;28;21023;-72
2022/05/25 03:41:21;;;;;;;10.70;8.23;;;;;;;;;;5113389;28;20807;-72
2022/05/25 03:43:48;;;;;;;11.03;8.77;;;;;;;;;;5113069;28;20578;-72
2022/05/25 03:46:17;;;;;;;7.23;6.53;;;;;;;;;;5113360;28;20478;-72
2022/05/25 03:48:44;;;;;;;6.13;5.13;;;;;;;;;;5113131;28;20453;-72
2022/05/25 03:51:11;;;;;;;5.53;5.03;;;;;;;;;;5115107;28;20473;-71
2022/05/25 03:53:38;;;;;;;5.00;4.50;;;;;;;;;;5116927;28;20446;-72
2022/05/25 03:56:06;;;;;;;4.77;3.70;;;;;;;;;;5116924;27;20445;-72
2022/05/25 03:58:33;;;;;;;5.13;4.63;;;;;;;;;;5116940;27;20445;-72
2022/05/25 04:01:00;;;;;;;6.67;5.07;;;;;;;;;;5116862;28;20469;-72
2022/05/25 04:03:28;;;;;;;6.30;4.80;;;;;;;;;;5116843;28;20449;-72
2022/05/25 04:05:55;;;;;;;6.30;4.00;;;;;;;;;;5116708;28;20493;-72
2022/05/25 04:08:22;;;;;;;4.20;3.80;;;;;;;;;;5116407;28;20523;-72
2022/05/25 04:10:49;;;;;;;4.60;4.20;;;;;;;;;;5116623;28;20820;-72
2022/05/25 04:13:17;;;;;;;4.70;4.17;;;;;;;;;;5116320;28;20452;-72
2022/05/25 04:15:44;;;;;;;4.07;3.70;;;;;;;;;;5116531;28;20934;-72
2022/05/25 04:18:11;;;;;;;5.47;4.10;;;;;;;;;;5116584;27;20811;-72
2022/05/25 04:20:39;;;;;;;4.77;4.33;;;;;;;;;;5116410;28;20476;-72
2022/05/25 04:23:10;;;;;;;5.13;4.63;;;;;;;;;;5116177;28;20445;-72
2022/05/25 04:25:37;;;;;;;5.80;4.50;;;;;;;;;;5116211;28;20434;-72
2022/05/25 04:28:05;;;;;;;4.87;4.43;;;;;;;;;;5116291;28;20489;-72
2022/05/25 04:30:32;;;;;;;5.37;4.77;;;;;;;;;;5116281;28;20848;-72
2022/05/25 04:32:59;;;;;;;7.53;4.57;;;;;;;;;;5116257;28;20506;-72
2022/05/25 04:35:27;;;;;;;6.40;5.43;;;;;;;;;;5116169;28;20445;-72
2022/05/25 04:37:56;;;;;;;5.40;4.60;;;;;;;;;;5116199;28;20456;-72
2022/05/25 04:40:25;;;;;;;4.90;4.40;;;;;;;;;;5115784;28;20494;-72
2022/05/25 04:42:53;;;;;;;6.67;5.30;;;;;;;;;;5115753;28;20469;-72
2022/05/25 04:45:21;;;;;;;6.87;5.00;;;;;;;;;;5115614;28;20449;-72
2022/05/25 04:47:48;;;;;;;6.67;4.80;;;;;;;;;;5115571;28;20478;-72
2022/05/25 04:50:17;;;;;;;6.30;4.40;;;;;;;;;;5115895;28;20480;-72
2022/05/25 04:52:44;;;;;;;4.07;3.63;;;;;;;;;;5115981;28;20450;-72
2022/05/25 04:57:19;;;;;;;4.33;3.07;;;;;;;;;;5115484;28;20457;-72
2022/05/25 04:57:59;;;;;;;4.20;3.20;;;;;;;;;;5115283;28;20538;-72
2022/05/25 05:00:27;;;;;;;3.47;3.10;;;;;;;;;;5116352;28;20874;-72
2022/05/25 05:02:54;;;;;;;4.30;3.20;;;;;;;;;;5115702;28;20453;-72
2022/05/25 05:05:22;;;;;;;4.40;4.00;;;;;;;;;;5115672;28;20475;-72
2022/05/25 05:07:49;;;;;;;6.57;3.90;;;;;;;;;;5114993;28;20493;-72
2022/05/25 05:10:18;;;;;;;5.50;4.53;;;;;;;;;;5115156;28;20469;-72
2022/05/25 05:12:45;;;;;;;4.90;3.83;;;;;;;;;;5115134;28;20465;-72
2022/05/25 05:15:12;;;;;;;6.33;4.43;;;;;;;;;;5114705;28;20456;-72
2022/05/25 05:17:40;;;;;;;6.13;4.33;;;;;;;;;;5114785;28;20445;-73
2022/05/25 05:20:08;;;;;;;6.60;4.97;;;;;;;;;;5114768;28;20472;-72
2022/05/25 05:22:35;;;;;;;12.20;9.07;;;;;;;;;;5115055;28;20819;-72
2022/05/25 05:25:02;;;;;;;8.93;7.37;;;;;;;;;;5114192;28;20458;-72
2022/05/25 05:27:30;;;;;;;9.70;6.93;;;;;;;;;;5114667;28;20492;-72
2022/05/25 05:30:00;;;;;;;10.27;6.27;;;;;;;;;;5114592;28;20473;-72
2022/05/25 05:32:27;;;;;;;9.03;6.90;;;;;;;;;;5114630;28;20460;-72
2022/05/25 05:34:55;;;;;;;7.93;6.90;;;;;;;;;;5114302;28;20453;-72
2022/05/25 05:37:25;;;;;;;7.70;6.70;;;;;;;;;;5114523;28;20485;-72
2022/05/25 05:39:54;;;;;;;12.17;9.90;;;;;;;;;;5114478;28;20465;-72
2022/05/25 05:42:22;;;;;;;8.57;7.67;;;;;;;;;;5114355;28;20461;-72
2022/05/25 05:44:54;;;;;;;9.17;7.70;;;;;;;;;;5114393;28;20931;-72
2022/05/25 05:47:23;;;;;;;9.07;7.60;;;;;;;;;;5114384;28;20998;-72
2022/05/25 05:49:50;;;;;;;7.00;6.17;;;;;;;;;;5114293;28;20990;-72
2022/05/25 05:52:17;;;;;;;7.83;7.00;;;;;;;;;;5114225;28;20946;-72
2022/05/25 05:54:45;;;;;;;10.90;6.83;;;;;;;;;;5114018;28;20461;-72
2022/05/25 05:57:13;;;;;;;10.47;5.97;;;;;;;;;;5114248;28;21004;-73
2022/05/25 05:59:40;;;;;;;6.77;4.87;;;;;;;;;;5114105;28;20466;-73
2022/05/25 06:02:09;;;;;;;6.53;5.80;;;;;;;;;;5114132;28;20871;-73
2022/05/25 06:04:36;;;;;;;8.90;5.47;;;;;;;;;;5113851;28;20454;-73
2022/05/25 06:07:04;;;;;;;5.93;5.23;;;;;;;;;;5113876;28;20837;-73
2022/05/25 06:09:32;;;;;;;5.33;4.83;;;;;;;;;;5114059;28;21127;-73
2022/05/25 06:11:59;;;;;;;5.57;4.97;;;;;;;;;;5114032;28;20449;-73
2022/05/25 06:14:26;;;;;;;6.07;5.47;;;;;;;;;;5109040;28;20453;-72
2022/05/25 06:19:39;;;;;;;5.17;4.20;;;;;;;;;;5112294;28;20499;-72
2022/05/25 06:22:08;;;;;;;8.27;6.87;;;;;;;;;;5112334;28;20823;-72
2022/05/25 06:24:37;;;;;;;6.60;5.50;;;;;;;;;;5111756;28;20509;-72
2022/05/25 06:27:08;;;;;;;8.43;5.90;;;;;;;;;;5112079;28;20866;-73
2022/05/25 06:29:35;;;;;;;7.77;6.20;;;;;;;;;;5112878;28;20516;-73
2022/05/25 06:32:02;;;;;;;7.23;5.17;;;;;;;;;;5112286;28;20454;-73
2022/05/25 06:34:29;;;;;;;8.30;5.53;;;;;;;;;;5112014;28;20815;-73
2022/05/25 06:36:57;;;;;;;11.10;7.10;;;;;;;;;;5112220;28;20537;-73
2022/05/25 06:39:25;;;;;;;9.27;6.23;;;;;;;;;;5111993;28;20461;-73
2022/05/25 06:41:52;;;;;;;6.83;5.73;;;;;;;;;;5111946;28;20465;-73
2022/05/25 06:44:19;;;;;;;10.97;6.00;;;;;;;;;;5111554;28;20489;-73
2022/05/25 06:46:46;;;;;;;8.57;6.30;;;;;;;;;;5109987;28;20570;-73
2022/05/25 06:49:16;;;;;;;7.50;6.30;;;;;;;;;;5111586;28;20481;-72
2022/05/25 06:51:43;;;;;;;7.70;7.00;;;;;;;;;;5112044;28;21007;-72
2022/05/25 06:54:13;;;;;;;8.60;7.70;;;;;;;;;;5111268;28;20445;-72
2022/05/25 06:56:40;;;;;;;9.20;7.97;;;;;;;;;;5111976;28;20939;-72
2022/05/25 06:59:08;;;;;;;12.63;9.07;;;;;;;;;;5111558;28;20457;-73
2022/05/25 07:01:35;;;;;;;9.83;8.73;;;;;;;;;;5111736;28;20474;-73
2022/05/25 07:04:03;;;;;;;10.23;9.13;;;;;;;;;;5111588;28;20460;-73
2022/05/25 07:06:30;;;;;;;11.40;7.80;;;;;;;;;;5112051;28;20927;-73
2022/05/25 07:08:57;;;;;;;11.13;9.13;;;;;;;;;;5111788;28;20449;-72
2022/05/25 07:11:25;;;;;;;11.33;9.07;;;;;;;;;;5111721;28;20469;-72
2022/05/25 07:13:54;;;;;;;10.17;7.93;;;;;;;;;;5111836;28;20471;-72
2022/05/25 07:16:22;;;;;;;12.43;8.77;;;;;;;;;;5110618;28;20503;-72
2022/05/25 07:18:49;;;;;;;9.50;8.60;;;;;;;;;;5111759;28;20923;-73
2022/05/25 07:21:18;;;;;;;8.40;7.50;;;;;;;;;;5111537;28;20477;-72
2022/05/25 07:23:46;;;;;;;9.83;8.17;;;;;;;;;;5111017;28;20468;-73
2022/05/25 07:26:13;;;;;;;8.67;7.73;;;;;;;;;;5114361;28;20452;-73
2022/05/25 07:28:42;;;;;;;11.20;7.97;;;;;;;;;;5115775;28;20504;-73
2022/05/25 07:31:11;;;;;;;8.37;7.53;;;;;;;;;;5115347;28;20469;-73
2022/05/25 07:33:40;;;;;;;8.47;7.03;;;;;;;;;;5115461;28;20942;-73
2022/05/25 07:36:08;;;;;;;8.50;7.70;;;;;;;;;;5115341;28;20445;-74
2022/05/25 07:38:35;;;;;;;9.07;8.17;;;;;;;;;;5115274;28;20452;-73
2022/05/25 07:41:03;;;;;;;10.23;7.67;;;;;;;;;;5115285;28;20475;-73
2022/05/25 07:43:33;;;;;;;9.57;7.00;;;;;;;;;;5115018;28;20472;-74
2022/05/25 07:46:01;;;;;;;7.50;6.77;;;;;;;;;;5115132;28;20456;-74
2022/05/25 07:48:28;;;;;;;7.90;7.20;;;;;;;;;;5115073;28;21035;-73
2022/05/25 07:50:56;;;;;;;14.10;7.50;;;;;;;;;;5115245;28;20473;-73
2022/05/25 07:56:07;;;;;;;8.70;5.90;;;;;;;;;;5115114;28;20417;-73
2022/05/25 07:58:35;;;;;;;6.77;6.17;;;;;;;;;;5115215;28;20452;-73
2022/05/25 08:01:06;;;;;;;8.67;6.60;;;;;;;;;;5114629;28;20483;-73
2022/05/25 08:06:17;;;;;;;6.27;5.67;;;;;;;;;;5113219;28;20906;-72
2022/05/25 08:08:45;;;;;;;16.20;4.50;;;;;;;;;;5114763;28;20492;-73
2022/05/25 08:11:14;;;;;;;6.40;5.00;;;;;;;;;;5114608;28;20465;-73
2022/05/25 08:13:44;;;;;;;10.57;4.80;;;;;;;;;;5114425;28;20454;-73
2022/05/25 08:16:12;;;;;;;6.30;4.20;;;;;;;;;;5114742;28;20782;-73
2022/05/25 08:18:39;;;;;;;3.57;3.27;;;;;;;;;;5114757;28;20845;-72
2022/05/25 08:21:07;;;;;;;4.03;3.73;;;;;;;;;;5114497;28;20842;-72
2022/05/25 08:23:34;;;;;;;3.30;3.00;;;;;;;;;;5114382;28;20454;-72
2022/05/25 08:26:01;;;;;;;3.73;3.37;;;;;;;;;;5114443;28;20461;-72
2022/05/25 08:28:28;;;;;;;3.37;2.60;;;;;;;;;;5113949;28;20506;-72
2022/05/25 08:30:56;;;;;;;3.50;3.20;;;;;;;;;;5114234;28;20480;-72
2022/05/25 08:33:25;;;;;;;4.00;2.73;;;;;;;;;;5114234;28;20445;-72
2022/05/25 08:35:52;;;;;;;3.77;2.30;;;;;;;;;;5113858;28;20445;-72
2022/05/25 08:38:21;;;;;;;2.83;2.63;;;;;;;;;;5114132;28;20457;-72
2022/05/25 08:40:49;;;;;;;2.73;2.27;;;;;;;;;;5114302;28;20606;-72
2022/05/25 08:43:19;;;;;;;4.47;2.40;;;;;;;;;;5113753;27;20469;-72
2022/05/25 08:45:48;;;;;;;2.33;2.03;;;;;;;;;;5112533;28;20735;-72
2022/05/25 08:48:16;;;;;;;5.17;3.90;;;;;;;;;;5113370;28;20565;-72
2022/05/25 08:50:45;;;;;;;3.00;2.80;;;;;;;;;;5113391;27;20469;-72
2022/05/25 08:53:13;;;;;;;2.83;2.63;;;;;;;;;;5113606;28;20454;-72
2022/05/25 08:55:44;;;;;;;3.40;2.37;;;;;;;;;;5113775;28;20454;-72
2022/05/25 08:58:12;;;;;;;2.73;2.50;;;;;;;;;;5113380;28;20477;-73
2022/05/25 09:00:40;;;;;;;3.27;2.70;;;;;;;;;;5113853;28;20474;-73
2022/05/25 09:03:09;;;;;;;5.57;3.00;;;;;;;;;;5113517;27;20450;-72
2022/05/25 09:05:39;;;;;;;2.70;2.50;;;;;;;;;;5113532;28;20453;-72
2022/05/25 09:08:13;;;;;;;2.83;2.33;;;;;;;;;;5113158;28;20487;-72
2022/05/25 09:10:43;;;;;;;3.10;2.37;;;;;;;;;;5113664;28;20473;-72
2022/05/25 09:13:12;;;;;;;3.10;2.53;;;;;;;;;;5113548;28;20596;-73
2022/05/25 09:16:15;;;;;;;2.50;2.30;;;;;;;;;;5113433;28;20449;-73
2022/05/25 09:18:33;;;;;;;7.30;3.03;;;;;;;;;;5113026;28;20437;-72
2022/05/25 09:21:02;;;;;;;2.93;2.43;;;;;;;;;;5113357;28;20846;-72
2022/05/25 09:23:31;;;;;;;3.70;3.30;;;;;;;;;;5112986;28;20451;-73
2022/05/25 09:25:59;;;;;;;4.87;2.80;;;;;;;;;;5113496;28;20448;-73
2022/05/25 09:28:30;;;;;;;3.17;2.47;;;;;;;;;;5113320;28;20485;-73
2022/05/25 09:30:58;;;;;;;9.10;3.70;;;;;;;;;;5113098;28;20473;-73
2022/05/25 09:33:29;;;;;;;3.93;3.63;;;;;;;;;;5112959;28;20488;-72
2022/05/25 09:35:59;;;;;;;5.07;3.47;;;;;;;;;;5113119;28;20475;-73
2022/05/25 09:38:36;;;;;;;3.80;3.27;;;;;;;;;;5112979;28;20457;-72
2022/05/25 09:41:04;;;;;;;5.67;3.77;;;;;;;;;;5112743;28;20492;-72
2022/05/25 09:43:32;;;;;;;5.73;3.80;;;;;;;;;;5112696;28;20457;-72
2022/05/25 09:46:05;;;;;;;5.20;4.70;;;;;;;;;;5113145;28;20485;-72
2022/05/25 09:48:33;;;;;;;6.90;6.20;;;;;;;;;;5112121;28;20986;-72
2022/05/25 09:51:06;;;;;;;4.00;3.70;;;;;;;;;;5112792;28;21016;-72
2022/05/25 09:53:37;;;;;;;4.50;4.10;;;;;;;;;;5112907;28;20452;-72
2022/05/25 09:56:06;;;;;;;3.30;3.10;;;;;;;;;;5112373;28;20453;-72
2022/05/25 09:58:36;;;;;;;3.27;2.97;;;;;;;;;;5112779;28;20528;-72
2022/05/25 10:01:07;;;;;;;7.13;2.83;;;;;;;;;;5112452;28;20474;-72
2022/05/25 10:03:38;;;;;;;3.37;3.07;;;;;;;;;;5112534;28;20459;-72
2022/05/25 10:06:18;;;;;;;3.60;2.60;;;;;;;;;;5112488;28;20453;-72
2022/05/25 10:08:46;;;;;;;3.67;2.57;;;;;;;;;;5113317;28;21086;-72
2022/05/25 10:11:27;;;;;;;3.73;2.43;;;;;;;;;;5113648;28;20941;-72
2022/05/25 10:13:55;;;;;;;7.00;3.30;;;;;;;;;;5113375;28;20496;-72
2022/05/25 10:16:25;;;;;;;3.10;2.80;;;;;;;;;;5113759;28;20445;-72
2022/05/25 10:18:53;;;;;;;3.43;3.13;;;;;;;;;;5113753;28;20442;-72
2022/05/25 10:21:25;;;;;;;7.20;5.97;;;;;;;;;;5113528;28;20481;-72
2022/05/25 10:23:54;;;;;;;2.40;2.20;;;;;;;;;;5112121;27;20500;-72
2022/05/25 10:26:31;;;;;;;3.13;2.83;;;;;;;;;;5112199;28;20450;-72
2022/05/25 10:29:00;;;;;;;3.03;2.30;;;;;;;;;;5113427;28;20855;-72
2022/05/25 10:37:18;;;;;;;7.77;2.53;;;;;;;;;;5106557;28;20436;-72
2022/05/25 10:39:50;;;;;;;2.43;2.23;;;;;;;;;;5113517;28;20465;-72
2022/05/25 10:42:18;;;;;;;1.97;1.77;;;;;;;;;;5113360;28;20461;-72
2022/05/25 10:44:49;;;;;;;1.90;1.70;;;;;;;;;;5113323;28;20502;-72
2022/05/25 10:47:22;;;;;;;2.70;2.20;;;;;;;;;;5113548;28;20448;-72
2022/05/25 10:49:49;;;;;;;1.63;1.40;;;;;;;;;;5113374;28;20516;-72
2022/05/25 10:52:21;;;;;;;1.70;1.50;;;;;;;;;;5113223;28;20454;-72
2022/05/25 10:54:52;;;;;;;2.00;1.60;;;;;;;;;;5113318;28;20524;-72
2022/05/25 10:57:28;;;;;;;2.73;1.40;;;;;;;;;;5113448;28;20934;-72
2022/05/25 11:00:03;;;;;;;1.83;1.47;;;;;;;;;;5116039;28;20465;-72
2022/05/25 11:02:38;;;;;;;2.07;1.50;;;;;;;;;;5117723;28;20560;-71
2022/05/25 11:05:12;;;;;;;1.97;1.43;;;;;;;;;;5117301;28;20464;-72
2022/05/25 11:07:40;;;;;;;1.63;1.43;;;;;;;;;;5117644;28;20452;-72
2022/05/25 11:10:14;;;;;;;1.70;1.47;;;;;;;;;;5117322;28;20485;-72
2022/05/25 11:12:45;;;;;;;5.03;1.40;;;;;;;;;;5114268;28;20994;-72
2022/05/25 11:15:18;;;;;;;2.10;1.47;;;;;;;;;;5115755;28;20461;-72
2022/05/25 11:17:52;;;;;;;1.90;1.40;;;;;;;;;;5115994;28;20480;-72
2022/05/25 11:20:22;;;;;;;1.50;1.30;;;;;;;;;;5115565;28;20978;-72
2022/05/25 11:22:59;;;;;;;1.63;1.40;;;;;;;;;;5115916;28;20456;-72
2022/05/25 11:25:32;;;;;;;1.70;1.47;;;;;;;;;;5115228;28;20982;-72
2022/05/25 11:28:09;;;;;;;2.97;1.50;;;;;;;;;;5115380;28;20449;-72
2022/05/25 11:30:39;;;;;;;2.00;1.63;;;;;;;;;;5115745;28;20469;-72
2022/05/25 11:33:14;;;;;;;2.70;1.40;;;;;;;;;;5115570;28;20533;-73
2022/05/25 11:35:48;;;;;;;2.97;1.70;;;;;;;;;;5115348;28;20801;-72
2022/05/25 11:38:19;;;;;;;1.77;1.30;;;;;;;;;;5115330;28;20572;-73
2022/05/25 11:40:53;;;;;;;2.17;1.83;;;;;;;;;;5115600;27;20713;-72
2022/05/25 11:43:33;;;;;;;2.27;1.70;;;;;;;;;;5114962;28;20465;-72
2022/05/25 11:46:01;;;;;;;2.80;1.57;;;;;;;;;;5115376;28;20449;-72
2022/05/25 11:48:34;;;;;;;1.90;1.53;;;;;;;;;;5115119;28;20477;-72
2022/05/25 11:51:06;;;;;;;1.80;1.60;;;;;;;;;;5115253;28;20499;-72
2022/05/25 11:53:47;;;;;;;3.10;1.50;;;;;;;;;;5115291;28;20468;-72
2022/05/25 11:56:30;;;;;;;2.40;1.80;;;;;;;;;;5114912;28;20444;-72
2022/05/25 11:59:03;;;;;;;2.20;1.50;;;;;;;;;;5115376;28;20514;-72
2022/05/25 12:01:33;;;;;;;4.53;1.40;;;;;;;;;;5115101;28;20466;-72
2022/05/25 12:04:13;;;;;;;3.03;1.40;;;;;;;;;;5114587;28;20446;-72
2022/05/25 12:06:54;;;;;;;2.43;1.33;;;;;;;;;;5115089;28;20445;-72
2022/05/25 12:09:40;;;;;;;2.47;1.53;;;;;;;;;;5114677;28;20485;-72
2022/05/25 12:12:12;;;;;;;1.70;1.60;;;;;;;;;;5113873;28;20445;-72
2022/05/25 12:14:46;;;;;;;1.70;1.47;;;;;;;;;;5114868;28;20453;-72
2022/05/25 12:17:17;;;;;;;2.13;1.50;;;;;;;;;;5114623;28;20449;-72
2022/05/25 12:19:45;;;;;;;1.97;1.47;;;;;;;;;;5114625;28;20469;-72
2022/05/25 12:22:15;;;;;;;2.80;2.40;;;;;;;;;;5114582;28;21068;-72
2022/05/25 12:24:44;;;;;;;1.67;1.17;;;;;;;;;;5114025;28;20445;-72
2022/05/25 12:27:15;;;;;;;2.10;1.60;;;;;;;;;;5114518;28;20534;-72
2022/05/25 12:29:44;;;;;;;3.63;1.50;;;;;;;;;;5114801;27;21013;-72
2022/05/25 12:32:11;;;;;;;1.70;1.30;;;;;;;;;;5114416;28;20461;-72
2022/05/25 12:34:40;;;;;;;1.60;1.30;;;;;;;;;;5109425;28;20549;-72
2022/05/25 12:37:08;;;;;;;2.47;1.20;;;;;;;;;;5095089;28;20455;-72
2022/05/25 12:39:58;;;;;;;1.47;1.20;;;;;;;;;;5094744;28;20504;-72
2022/05/25 12:42:34;;;;;;;1.60;1.27;;;;;;;;;;5094840;28;20470;-72
2022/05/25 12:50:43;;;;;;;2.60;1.30;;;;;;;;;;5094988;28;20599;-72
2022/05/25 12:53:27;;;;;;;1.63;1.40;;;;;;;;;;5094968;28;20451;-72
2022/05/25 12:55:55;;;;;;;2.77;1.20;;;;;;;;;;5084952;28;20468;-72
2022/05/25 12:58:39;;;;;;;2.13;1.57;;;;;;;;;;5094877;28;20812;-72
2022/05/25 13:01:07;;;;;;;1.63;1.20;;;;;;;;;;5094724;28;20462;-72
2022/05/25 13:03:36;;;;;;;1.80;1.20;;;;;;;;;;5094777;28;20442;-72
2022/05/25 13:06:05;;;;;;;3.00;1.33;;;;;;;;;;5094782;28;20443;-72
2022/05/25 13:08:50;;;;;;;1.50;1.20;;;;;;;;;;5094760;28;20454;-72
2022/05/25 13:11:30;;;;;;;2.10;1.80;;;;;;;;;;5094583;28;20466;-72
2022/05/25 13:13:59;;;;;;;1.90;1.33;;;;;;;;;;5094305;28;20451;-72
2022/05/25 13:16:45;;;;;;;1.60;1.30;;;;;;;;;;5094646;28;20511;-72
2022/05/25 13:19:17;;;;;;;2.73;1.50;;;;;;;;;;5094420;28;20443;-72
2022/05/25 13:21:45;;;;;;;4.73;1.57;;;;;;;;;;5094227;28;20453;-72
2022/05/25 13:24:33;;;;;;;1.50;1.20;;;;;;;;;;5093125;28;20515;-72
2022/05/25 13:27:11;;;;;;;2.50;1.53;;;;;;;;;;5094471;28;20504;-71
2022/05/25 13:29:45;;;;;;;2.80;1.77;;;;;;;;;;5094366;28;20493;-72
2022/05/25 13:32:14;;;;;;;1.50;1.20;;;;;;;;;;5094338;28;20944;-72
2022/05/25 13:34:42;;;;;;;2.60;1.50;;;;;;;;;;5093824;28;20458;-71
2022/05/25 13:37:13;;;;;;;2.40;1.50;;;;;;;;;;5094038;28;20860;-72
2022/05/25 13:39:41;;;;;;;2.00;1.60;;;;;;;;;;5093272;28;20979;-72
2022/05/25 13:42:10;;;;;;;2.57;1.47;;;;;;;;;;5093609;28;20474;-72
2022/05/25 13:44:42;;;;;;;1.50;1.13;;;;;;;;;;5092661;28;20454;-72
2022/05/25 13:47:09;;;;;;;3.73;1.60;;;;;;;;;;5093668;28;20808;-72
2022/05/25 13:49:39;;;;;;;2.13;1.43;;;;;;;;;;5093236;28;20499;-72
2022/05/25 13:52:14;;;;;;;3.63;1.40;;;;;;;;;;5092764;28;20455;-72
2022/05/25 13:54:42;;;;;;;6.33;2.13;;;;;;;;;;5093247;28;20481;-72
2022/05/25 13:57:10;;;;;;;2.93;1.40;;;;;;;;;;5092171;28;20460;-72
2022/05/25 13:59:39;;;;;;;3.57;2.07;;;;;;;;;;5092732;28;20482;-72
2022/05/25 14:02:13;;;;;;;4.30;1.57;;;;;;;;;;5093532;28;20450;-72
2022/05/25 14:04:40;;;;;;;7.33;1.40;;;;;;;;;;5092636;28;20460;-72
2022/05/25 14:07:08;;;;;;;3.30;2.70;;;;;;;;;;5093528;28;20459;-72
2022/05/25 14:12:31;;;;;;;1.60;1.20;;;;;;;;;;5051226;28;20425;-72
2022/05/25 14:15:01;;;;;;;1.70;1.30;;;;;;;;;;5083115;28;20458;-72
2022/05/25 14:17:30;;;;;;;1.80;1.30;;;;;;;;;;5093474;28;20449;-72
2022/05/25 14:19:58;;;;;;;2.23;1.03;;;;;;;;;;5093385;28;20540;-72
2022/05/25 14:22:27;;;;;;;1.60;1.40;;;;;;;;;;5093505;28;20506;-72
2022/05/25 14:24:56;;;;;;;1.60;1.30;;;;;;;;;;5092762;28;20454;-72
2022/05/25 14:27:26;;;;;;;2.33;1.30;;;;;;;;;;5093393;28;20457;-72
2022/05/25 14:29:54;;;;;;;2.63;1.50;;;;;;;;;;5093194;28;20493;-72
2022/05/25 14:32:24;;;;;;;1.77;1.33;;;;;;;;;;5093163;28;20821;-72
2022/05/25 14:34:53;;;;;;;1.73;1.60;;;;;;;;;;5092916;28;20443;-72
2022/05/25 14:37:21;;;;;;;6.30;2.23;;;;;;;;;;5093028;28;20451;-72
2022/05/25 14:39:48;;;;;;;1.67;1.30;;;;;;;;;;5093264;28;20470;-72
2022/05/25 14:42:18;;;;;;;2.50;1.43;;;;;;;;;;5093076;28;20459;-72
2022/05/25 14:44:48;;;;;;;3.20;1.50;;;;;;;;;;5093029;28;20539;-72
2022/05/25 14:47:18;;;;;;;2.87;1.50;;;;;;;;;;5093061;28;20447;-72
2022/05/25 14:49:57;;;;;;;4.00;3.33;;;;;;;;;;5093007;28;20936;-72
2022/05/25 14:52:26;;;;;;;2.40;1.77;;;;;;;;;;5093063;28;20438;-72
2022/05/25 14:55:01;;;;;;;2.40;2.10;;;;;;;;;;5092897;28;20449;-72
2022/05/25 14:57:28;;;;;;;2.83;2.53;;;;;;;;;;5093332;28;20472;-72
2022/05/25 14:59:56;;;;;;;3.00;2.50;;;;;;;;;;5092877;28;20459;-72
2022/05/25 15:02:25;;;;;;;2.07;1.87;;;;;;;;;;5092917;28;20461;-72
2022/05/25 15:04:52;;;;;;;4.53;2.40;;;;;;;;;;5092825;28;20451;-72
2022/05/25 15:07:25;;;;;;;2.10;1.67;;;;;;;;;;5092935;28;20951;-72
2022/05/25 15:09:52;;;;;;;2.00;1.50;;;;;;;;;;5092851;28;20496;-72
2022/05/25 15:12:21;;;;;;;2.60;2.10;;;;;;;;;;5092773;28;20451;-72
2022/05/25 15:20:53;;;;;;;2.00;1.50;;;;;;;;;;5030541;28;20495;-72
2022/05/25 15:23:25;;;;;;;4.00;1.60;;;;;;;;;;5074696;28;20815;-72
2022/05/25 15:25:52;;;;;;;2.00;1.53;;;;;;;;;;5092836;28;20454;-72
2022/05/25 15:28:30;;;;;;;2.70;1.90;;;;;;;;;;5092704;28;20474;-72
2022/05/25 15:30:57;;;;;;;9.23;2.07;;;;;;;;;;5092661;28;21007;-72